sensor_id;sensor_type;location;lat;lon;timestamp;P1;durP1;ratioP1;P2;durP2;ratioP2
2390;SDS011;22957;50.824;4.360;2023-04-24T00:01:39;19.97;;;10.90;;
2390;SDS011;22957;50.824;4.360;2023-04-24T00:04:05;17.77;;;9.63;;
2390;SDS011;22957;50.824;4.360;2023-04-24T00:06:32;15.47;;;9.67;;
2390;SDS011;22957;50.824;4.360;2023-04-24T00:09:01;14.57;;;8.80;;
2390;SDS011;22957;50.824;4.360;2023-04-24T00:11:28;16.30;;;9.50;;
2390;SDS011;22957;50.824;4.360;2023-04-24T00:13:54;19.60;;;8.47;;
2390;SDS011;22957;50.824;4.360;2023-04-24T00:16:21;22.87;;;11.73;;
2390;SDS011;22957;50.824;4.360;2023-04-24T00:18:47;19.13;;;10.33;;
2390;SDS011;22957;50.824;4.360;2023-04-24T00:21:13;18.97;;;9.70;;
2390;SDS011;22957;50.824;4.360;2023-04-24T00:23:41;16.70;;;8.70;;
2390;SDS011;22957;50.824;4.360;2023-04-24T00:26:06;17.00;;;9.97;;
2390;SDS011;22957;50.824;4.360;2023-04-24T00:28:32;20.37;;;11.20;;
2390;SDS011;22957;50.824;4.360;2023-04-24T00:30:57;20.93;;;9.20;;
2390;SDS011;22957;50.824;4.360;2023-04-24T00:33:23;21.23;;;10.97;;
2390;SDS011;22957;50.824;4.360;2023-04-24T00:35:49;20.17;;;9.30;;
2390;SDS011;22957;50.824;4.360;2023-04-24T00:38:14;15.10;;;9.47;;
2390;SDS011;22957;50.824;4.360;2023-04-24T00:40:40;15.77;;;8.87;;
2390;SDS011;22957;50.824;4.360;2023-04-24T00:43:05;14.87;;;9.17;;
2390;SDS011;22957;50.824;4.360;2023-04-24T00:45:31;18.07;;;9.53;;
2390;SDS011;22957;50.824;4.360;2023-04-24T00:47:57;15.70;;;10.00;;
2390;SDS011;22957;50.824;4.360;2023-04-24T00:50:23;12.83;;;8.53;;
2390;SDS011;22957;50.824;4.360;2023-04-24T00:52:50;15.07;;;9.50;;
2390;SDS011;22957;50.824;4.360;2023-04-24T00:55:16;18.93;;;9.90;;
2390;SDS011;22957;50.824;4.360;2023-04-24T00:57:42;15.50;;;8.37;;
2390;SDS011;22957;50.824;4.360;2023-04-24T01:00:09;17.87;;;9.97;;
2390;SDS011;22957;50.824;4.360;2023-04-24T01:02:39;16.63;;;10.13;;
2390;SDS011;22957;50.824;4.360;2023-04-24T01:05:08;15.33;;;9.53;;
2390;SDS011;22957;50.824;4.360;2023-04-24T01:07:34;21.07;;;9.73;;
2390;SDS011;22957;50.824;4.360;2023-04-24T01:10:01;14.10;;;9.13;;
2390;SDS011;22957;50.824;4.360;2023-04-24T01:12:28;18.20;;;10.60;;
2390;SDS011;22957;50.824;4.360;2023-04-24T01:14:54;19.10;;;10.33;;
2390;SDS011;22957;50.824;4.360;2023-04-24T01:17:21;11.90;;;8.43;;
2390;SDS011;22957;50.824;4.360;2023-04-24T01:19:47;16.63;;;9.47;;
2390;SDS011;22957;50.824;4.360;2023-04-24T01:22:13;15.07;;;9.10;;
2390;SDS011;22957;50.824;4.360;2023-04-24T01:24:40;21.17;;;10.40;;
2390;SDS011;22957;50.824;4.360;2023-04-24T01:27:06;13.60;;;9.23;;
2390;SDS011;22957;50.824;4.360;2023-04-24T01:29:33;17.90;;;8.60;;
2390;SDS011;22957;50.824;4.360;2023-04-24T01:32:00;14.10;;;9.07;;
2390;SDS011;22957;50.824;4.360;2023-04-24T01:34:26;15.93;;;9.27;;
2390;SDS011;22957;50.824;4.360;2023-04-24T01:36:51;17.10;;;9.00;;
2390;SDS011;22957;50.824;4.360;2023-04-24T01:39:17;15.00;;;7.97;;
2390;SDS011;22957;50.824;4.360;2023-04-24T01:41:45;14.97;;;9.00;;
2390;SDS011;22957;50.824;4.360;2023-04-24T01:44:11;9.97;;;7.20;;
2390;SDS011;22957;50.824;4.360;2023-04-24T01:46:37;16.53;;;8.73;;
2390;SDS011;22957;50.824;4.360;2023-04-24T01:49:03;10.50;;;8.40;;
2390;SDS011;22957;50.824;4.360;2023-04-24T01:51:28;18.17;;;9.30;;
2390;SDS011;22957;50.824;4.360;2023-04-24T01:53:54;13.80;;;9.17;;
2390;SDS011;22957;50.824;4.360;2023-04-24T01:56:21;12.10;;;8.90;;
2390;SDS011;22957;50.824;4.360;2023-04-24T01:58:47;13.73;;;8.00;;
2390;SDS011;22957;50.824;4.360;2023-04-24T02:01:18;17.40;;;9.53;;
2390;SDS011;22957;50.824;4.360;2023-04-24T02:03:45;12.33;;;8.57;;
2390;SDS011;22957;50.824;4.360;2023-04-24T02:06:10;15.00;;;9.27;;
2390;SDS011;22957;50.824;4.360;2023-04-24T02:08:36;15.40;;;9.53;;
2390;SDS011;22957;50.824;4.360;2023-04-24T02:11:02;16.30;;;10.13;;
2390;SDS011;22957;50.824;4.360;2023-04-24T02:13:27;14.83;;;10.73;;
2390;SDS011;22957;50.824;4.360;2023-04-24T02:15:53;20.17;;;11.47;;
2390;SDS011;22957;50.824;4.360;2023-04-24T02:18:19;17.63;;;10.53;;
2390;SDS011;22957;50.824;4.360;2023-04-24T02:20:45;19.60;;;11.10;;
2390;SDS011;22957;50.824;4.360;2023-04-24T02:23:11;15.10;;;10.17;;
2390;SDS011;22957;50.824;4.360;2023-04-24T02:25:38;16.43;;;10.40;;
2390;SDS011;22957;50.824;4.360;2023-04-24T02:28:03;18.10;;;10.60;;
2390;SDS011;22957;50.824;4.360;2023-04-24T02:30:29;12.93;;;10.17;;
2390;SDS011;22957;50.824;4.360;2023-04-24T02:32:55;17.27;;;9.63;;
2390;SDS011;22957;50.824;4.360;2023-04-24T02:35:21;21.70;;;10.97;;
2390;SDS011;22957;50.824;4.360;2023-04-24T02:37:47;17.40;;;10.00;;
2390;SDS011;22957;50.824;4.360;2023-04-24T02:40:13;12.90;;;8.80;;
2390;SDS011;22957;50.824;4.360;2023-04-24T02:42:38;14.83;;;9.27;;
2390;SDS011;22957;50.824;4.360;2023-04-24T02:45:04;12.73;;;8.53;;
2390;SDS011;22957;50.824;4.360;2023-04-24T02:47:30;12.83;;;9.30;;
2390;SDS011;22957;50.824;4.360;2023-04-24T02:49:56;13.50;;;8.80;;
2390;SDS011;22957;50.824;4.360;2023-04-24T02:52:21;13.03;;;8.63;;
2390;SDS011;22957;50.824;4.360;2023-04-24T02:54:47;16.00;;;9.20;;
2390;SDS011;22957;50.824;4.360;2023-04-24T02:57:12;10.93;;;7.90;;
2390;SDS011;22957;50.824;4.360;2023-04-24T02:59:38;12.10;;;8.20;;
2390;SDS011;22957;50.824;4.360;2023-04-24T03:02:04;16.70;;;9.73;;
2390;SDS011;22957;50.824;4.360;2023-04-24T03:04:30;14.07;;;8.40;;
2390;SDS011;22957;50.824;4.360;2023-04-24T03:06:56;14.67;;;8.27;;
2390;SDS011;22957;50.824;4.360;2023-04-24T03:09:22;11.57;;;7.67;;
2390;SDS011;22957;50.824;4.360;2023-04-24T03:11:48;11.27;;;6.80;;
2390;SDS011;22957;50.824;4.360;2023-04-24T03:14:14;10.77;;;6.77;;
2390;SDS011;22957;50.824;4.360;2023-04-24T03:16:40;11.23;;;7.47;;
2390;SDS011;22957;50.824;4.360;2023-04-24T03:19:06;9.70;;;7.10;;
2390;SDS011;22957;50.824;4.360;2023-04-24T03:21:32;13.60;;;7.03;;
2390;SDS011;22957;50.824;4.360;2023-04-24T03:23:58;8.73;;;6.60;;
2390;SDS011;22957;50.824;4.360;2023-04-24T03:26:24;13.60;;;7.93;;
2390;SDS011;22957;50.824;4.360;2023-04-24T03:28:49;14.00;;;7.30;;
2390;SDS011;22957;50.824;4.360;2023-04-24T03:31:15;8.40;;;7.23;;
2390;SDS011;22957;50.824;4.360;2023-04-24T03:33:41;10.70;;;7.40;;
2390;SDS011;22957;50.824;4.360;2023-04-24T03:36:07;10.30;;;6.77;;
2390;SDS011;22957;50.824;4.360;2023-04-24T03:38:33;10.20;;;6.60;;
2390;SDS011;22957;50.824;4.360;2023-04-24T03:40:58;13.10;;;7.20;;
2390;SDS011;22957;50.824;4.360;2023-04-24T03:43:24;9.33;;;5.90;;
2390;SDS011;22957;50.824;4.360;2023-04-24T03:45:49;13.70;;;6.13;;
2390;SDS011;22957;50.824;4.360;2023-04-24T03:48:15;8.30;;;6.13;;
2390;SDS011;22957;50.824;4.360;2023-04-24T03:50:41;7.30;;;5.43;;
2390;SDS011;22957;50.824;4.360;2023-04-24T03:53:06;8.30;;;5.37;;
2390;SDS011;22957;50.824;4.360;2023-04-24T03:55:33;7.50;;;4.50;;
2390;SDS011;22957;50.824;4.360;2023-04-24T03:57:58;7.37;;;4.30;;
2390;SDS011;22957;50.824;4.360;2023-04-24T04:00:24;8.00;;;5.13;;
2390;SDS011;22957;50.824;4.360;2023-04-24T04:02:50;5.90;;;4.00;;
2390;SDS011;22957;50.824;4.360;2023-04-24T04:05:16;6.00;;;4.37;;
2390;SDS011;22957;50.824;4.360;2023-04-24T04:07:42;8.50;;;4.60;;
2390;SDS011;22957;50.824;4.360;2023-04-24T04:10:07;11.60;;;5.07;;
2390;SDS011;22957;50.824;4.360;2023-04-24T04:12:33;5.53;;;3.70;;
2390;SDS011;22957;50.824;4.360;2023-04-24T04:14:59;5.70;;;3.83;;
2390;SDS011;22957;50.824;4.360;2023-04-24T04:17:25;4.27;;;3.23;;
2390;SDS011;22957;50.824;4.360;2023-04-24T04:19:50;7.00;;;4.10;;
2390;SDS011;22957;50.824;4.360;2023-04-24T04:22:16;7.30;;;4.27;;
2390;SDS011;22957;50.824;4.360;2023-04-24T04:24:41;5.87;;;3.83;;
2390;SDS011;22957;50.824;4.360;2023-04-24T04:27:08;4.63;;;3.77;;
2390;SDS011;22957;50.824;4.360;2023-04-24T04:29:33;4.90;;;3.60;;
2390;SDS011;22957;50.824;4.360;2023-04-24T04:31:59;6.80;;;3.43;;
2390;SDS011;22957;50.824;4.360;2023-04-24T04:34:26;4.13;;;3.27;;
2390;SDS011;22957;50.824;4.360;2023-04-24T04:36:51;5.87;;;3.43;;
2390;SDS011;22957;50.824;4.360;2023-04-24T04:39:17;6.80;;;3.67;;
2390;SDS011;22957;50.824;4.360;2023-04-24T04:41:43;4.93;;;3.80;;
2390;SDS011;22957;50.824;4.360;2023-04-24T04:44:11;6.60;;;3.53;;
2390;SDS011;22957;50.824;4.360;2023-04-24T04:46:37;6.73;;;3.60;;
2390;SDS011;22957;50.824;4.360;2023-04-24T04:49:03;5.93;;;3.50;;
2390;SDS011;22957;50.824;4.360;2023-04-24T04:51:29;6.70;;;3.70;;
2390;SDS011;22957;50.824;4.360;2023-04-24T04:53:56;8.37;;;3.90;;
2390;SDS011;22957;50.824;4.360;2023-04-24T04:56:21;7.43;;;5.03;;
2390;SDS011;22957;50.824;4.360;2023-04-24T04:58:47;6.43;;;5.10;;
2390;SDS011;22957;50.824;4.360;2023-04-24T05:01:13;13.10;;;6.30;;
2390;SDS011;22957;50.824;4.360;2023-04-24T05:03:38;9.97;;;5.80;;
2390;SDS011;22957;50.824;4.360;2023-04-24T05:06:04;9.13;;;5.80;;
2390;SDS011;22957;50.824;4.360;2023-04-24T05:08:31;10.10;;;5.80;;
2390;SDS011;22957;50.824;4.360;2023-04-24T05:10:56;8.57;;;5.93;;
2390;SDS011;22957;50.824;4.360;2023-04-24T05:13:22;24.53;;;7.60;;
2390;SDS011;22957;50.824;4.360;2023-04-24T05:15:47;13.77;;;7.27;;
2390;SDS011;22957;50.824;4.360;2023-04-24T05:18:13;12.00;;;7.20;;
2390;SDS011;22957;50.824;4.360;2023-04-24T05:20:39;10.97;;;7.67;;
2390;SDS011;22957;50.824;4.360;2023-04-24T05:23:05;13.53;;;7.93;;
2390;SDS011;22957;50.824;4.360;2023-04-24T05:25:30;10.30;;;6.10;;
2390;SDS011;22957;50.824;4.360;2023-04-24T05:28:00;19.67;;;7.47;;
2390;SDS011;22957;50.824;4.360;2023-04-24T05:30:26;10.60;;;7.40;;
2390;SDS011;22957;50.824;4.360;2023-04-24T05:32:51;11.13;;;7.67;;
2390;SDS011;22957;50.824;4.360;2023-04-24T05:35:17;9.73;;;6.80;;
2390;SDS011;22957;50.824;4.360;2023-04-24T05:37:43;12.33;;;8.10;;
2390;SDS011;22957;50.824;4.360;2023-04-24T05:40:09;14.90;;;8.20;;
2390;SDS011;22957;50.824;4.360;2023-04-24T05:42:36;14.43;;;7.90;;
2390;SDS011;22957;50.824;4.360;2023-04-24T05:45:01;17.30;;;8.87;;
2390;SDS011;22957;50.824;4.360;2023-04-24T05:47:28;10.30;;;7.40;;
2390;SDS011;22957;50.824;4.360;2023-04-24T05:49:53;12.07;;;7.53;;
2390;SDS011;22957;50.824;4.360;2023-04-24T05:52:19;11.93;;;8.17;;
2390;SDS011;22957;50.824;4.360;2023-04-24T05:54:45;13.97;;;8.33;;
2390;SDS011;22957;50.824;4.360;2023-04-24T05:57:10;14.83;;;7.53;;
2390;SDS011;22957;50.824;4.360;2023-04-24T05:59:36;15.17;;;7.13;;
2390;SDS011;22957;50.824;4.360;2023-04-24T06:02:06;14.53;;;9.37;;
2390;SDS011;22957;50.824;4.360;2023-04-24T06:04:32;15.23;;;8.33;;
2390;SDS011;22957;50.824;4.360;2023-04-24T06:06:58;14.80;;;8.90;;
2390;SDS011;22957;50.824;4.360;2023-04-24T06:09:24;16.57;;;9.17;;
2390;SDS011;22957;50.824;4.360;2023-04-24T06:11:50;18.80;;;9.07;;
2390;SDS011;22957;50.824;4.360;2023-04-24T06:14:18;15.60;;;10.03;;
2390;SDS011;22957;50.824;4.360;2023-04-24T06:16:44;15.53;;;9.13;;
2390;SDS011;22957;50.824;4.360;2023-04-24T06:19:09;15.63;;;7.77;;
2390;SDS011;22957;50.824;4.360;2023-04-24T06:21:35;13.10;;;8.23;;
2390;SDS011;22957;50.824;4.360;2023-04-24T06:24:01;17.07;;;8.40;;
2390;SDS011;22957;50.824;4.360;2023-04-24T06:26:27;19.60;;;9.50;;
2390;SDS011;22957;50.824;4.360;2023-04-24T06:28:53;15.00;;;7.93;;
2390;SDS011;22957;50.824;4.360;2023-04-24T06:31:23;14.37;;;8.60;;
2390;SDS011;22957;50.824;4.360;2023-04-24T06:33:49;19.40;;;9.00;;
2390;SDS011;22957;50.824;4.360;2023-04-24T06:36:14;20.80;;;9.43;;
2390;SDS011;22957;50.824;4.360;2023-04-24T06:38:40;17.73;;;8.70;;
2390;SDS011;22957;50.824;4.360;2023-04-24T06:41:06;21.83;;;11.17;;
2390;SDS011;22957;50.824;4.360;2023-04-24T06:43:32;17.53;;;10.37;;
2390;SDS011;22957;50.824;4.360;2023-04-24T06:45:58;19.90;;;10.37;;
2390;SDS011;22957;50.824;4.360;2023-04-24T06:48:24;22.77;;;10.27;;
2390;SDS011;22957;50.824;4.360;2023-04-24T06:50:50;20.20;;;11.10;;
2390;SDS011;22957;50.824;4.360;2023-04-24T06:53:16;17.67;;;11.33;;
2390;SDS011;22957;50.824;4.360;2023-04-24T06:55:42;19.87;;;11.33;;
2390;SDS011;22957;50.824;4.360;2023-04-24T06:58:09;14.60;;;10.47;;
2390;SDS011;22957;50.824;4.360;2023-04-24T07:00:35;17.90;;;9.37;;
2390;SDS011;22957;50.824;4.360;2023-04-24T07:03:01;16.27;;;11.30;;
2390;SDS011;22957;50.824;4.360;2023-04-24T07:05:27;23.73;;;11.00;;
2390;SDS011;22957;50.824;4.360;2023-04-24T07:07:53;21.73;;;12.07;;
2390;SDS011;22957;50.824;4.360;2023-04-24T07:10:19;15.10;;;10.93;;
2390;SDS011;22957;50.824;4.360;2023-04-24T07:12:45;22.03;;;11.77;;
2390;SDS011;22957;50.824;4.360;2023-04-24T07:15:11;28.97;;;11.93;;
2390;SDS011;22957;50.824;4.360;2023-04-24T07:17:37;21.13;;;11.10;;
2390;SDS011;22957;50.824;4.360;2023-04-24T07:20:08;20.27;;;10.63;;
2390;SDS011;22957;50.824;4.360;2023-04-24T07:22:35;16.70;;;10.50;;
2390;SDS011;22957;50.824;4.360;2023-04-24T07:25:02;27.13;;;11.63;;
2390;SDS011;22957;50.824;4.360;2023-04-24T07:27:28;15.17;;;9.70;;
2390;SDS011;22957;50.824;4.360;2023-04-24T07:29:54;17.40;;;10.00;;
2390;SDS011;22957;50.824;4.360;2023-04-24T07:32:19;16.60;;;10.33;;
2390;SDS011;22957;50.824;4.360;2023-04-24T07:34:45;15.43;;;9.87;;
2390;SDS011;22957;50.824;4.360;2023-04-24T07:37:11;15.27;;;8.50;;
2390;SDS011;22957;50.824;4.360;2023-04-24T07:39:36;23.87;;;10.67;;
2390;SDS011;22957;50.824;4.360;2023-04-24T07:42:02;14.50;;;9.80;;
2390;SDS011;22957;50.824;4.360;2023-04-24T07:44:28;20.10;;;11.67;;
2390;SDS011;22957;50.824;4.360;2023-04-24T07:46:54;21.57;;;10.40;;
2390;SDS011;22957;50.824;4.360;2023-04-24T07:49:20;16.80;;;10.00;;
2390;SDS011;22957;50.824;4.360;2023-04-24T07:51:46;23.33;;;10.57;;
2390;SDS011;22957;50.824;4.360;2023-04-24T07:54:11;18.03;;;11.00;;
2390;SDS011;22957;50.824;4.360;2023-04-24T07:56:37;18.57;;;9.67;;
2390;SDS011;22957;50.824;4.360;2023-04-24T07:59:04;20.57;;;10.63;;
2390;SDS011;22957;50.824;4.360;2023-04-24T08:01:30;16.23;;;8.80;;
2390;SDS011;22957;50.824;4.360;2023-04-24T08:03:56;22.30;;;9.20;;
2390;SDS011;22957;50.824;4.360;2023-04-24T08:06:21;17.00;;;8.60;;
2390;SDS011;22957;50.824;4.360;2023-04-24T08:08:47;14.90;;;8.77;;
2390;SDS011;22957;50.824;4.360;2023-04-24T08:11:13;11.57;;;6.60;;
2390;SDS011;22957;50.824;4.360;2023-04-24T08:13:38;16.50;;;7.30;;
2390;SDS011;22957;50.824;4.360;2023-04-24T08:16:04;13.40;;;6.70;;
2390;SDS011;22957;50.824;4.360;2023-04-24T08:18:30;13.73;;;8.23;;
2390;SDS011;22957;50.824;4.360;2023-04-24T08:20:55;13.00;;;6.13;;
2390;SDS011;22957;50.824;4.360;2023-04-24T08:23:26;12.43;;;6.30;;
2390;SDS011;22957;50.824;4.360;2023-04-24T08:25:52;12.67;;;6.40;;
2390;SDS011;22957;50.824;4.360;2023-04-24T08:28:17;13.80;;;6.37;;
2390;SDS011;22957;50.824;4.360;2023-04-24T08:30:45;14.40;;;5.70;;
2390;SDS011;22957;50.824;4.360;2023-04-24T08:33:12;12.63;;;6.70;;
2390;SDS011;22957;50.824;4.360;2023-04-24T08:35:37;12.90;;;6.03;;
2390;SDS011;22957;50.824;4.360;2023-04-24T08:38:04;12.70;;;6.60;;
2390;SDS011;22957;50.824;4.360;2023-04-24T08:40:29;15.43;;;6.50;;
2390;SDS011;22957;50.824;4.360;2023-04-24T08:43:00;10.80;;;5.40;;
2390;SDS011;22957;50.824;4.360;2023-04-24T08:45:26;11.40;;;5.17;;
2390;SDS011;22957;50.824;4.360;2023-04-24T08:47:52;12.57;;;5.30;;
2390;SDS011;22957;50.824;4.360;2023-04-24T08:50:19;9.43;;;4.93;;
2390;SDS011;22957;50.824;4.360;2023-04-24T08:52:47;18.23;;;5.03;;
2390;SDS011;22957;50.824;4.360;2023-04-24T08:55:15;14.20;;;5.70;;
2390;SDS011;22957;50.824;4.360;2023-04-24T08:57:43;9.17;;;4.17;;
2390;SDS011;22957;50.824;4.360;2023-04-24T09:00:10;8.33;;;3.60;;
2390;SDS011;22957;50.824;4.360;2023-04-24T09:02:36;12.47;;;4.47;;
2390;SDS011;22957;50.824;4.360;2023-04-24T09:05:05;11.70;;;4.10;;
2390;SDS011;22957;50.824;4.360;2023-04-24T09:07:32;12.20;;;4.90;;
2390;SDS011;22957;50.824;4.360;2023-04-24T09:10:02;7.20;;;3.50;;
2390;SDS011;22957;50.824;4.360;2023-04-24T09:12:28;8.60;;;3.90;;
2390;SDS011;22957;50.824;4.360;2023-04-24T09:14:54;9.33;;;3.80;;
2390;SDS011;22957;50.824;4.360;2023-04-24T09:17:20;7.93;;;3.33;;
2390;SDS011;22957;50.824;4.360;2023-04-24T09:19:48;8.17;;;3.83;;
2390;SDS011;22957;50.824;4.360;2023-04-24T09:22:13;7.93;;;3.70;;
2390;SDS011;22957;50.824;4.360;2023-04-24T09:24:40;5.33;;;2.40;;
2390;SDS011;22957;50.824;4.360;2023-04-24T09:27:06;10.70;;;3.50;;
2390;SDS011;22957;50.824;4.360;2023-04-24T09:29:32;11.60;;;3.73;;
2390;SDS011;22957;50.824;4.360;2023-04-24T09:31:58;8.47;;;3.40;;
2390;SDS011;22957;50.824;4.360;2023-04-24T09:34:27;14.03;;;3.60;;
2390;SDS011;22957;50.824;4.360;2023-04-24T09:36:53;6.50;;;3.33;;
2390;SDS011;22957;50.824;4.360;2023-04-24T09:39:19;10.33;;;3.20;;
2390;SDS011;22957;50.824;4.360;2023-04-24T09:41:49;7.30;;;3.23;;
2390;SDS011;22957;50.824;4.360;2023-04-24T09:44:20;7.77;;;3.10;;
2390;SDS011;22957;50.824;4.360;2023-04-24T09:46:51;6.77;;;3.00;;
2390;SDS011;22957;50.824;4.360;2023-04-24T09:49:30;8.00;;;3.30;;
2390;SDS011;22957;50.824;4.360;2023-04-24T09:52:07;7.37;;;2.90;;
2390;SDS011;22957;50.824;4.360;2023-04-24T09:54:35;6.77;;;3.03;;
2390;SDS011;22957;50.824;4.360;2023-04-24T09:57:04;7.27;;;3.20;;
2390;SDS011;22957;50.824;4.360;2023-04-24T09:59:32;8.30;;;3.93;;
2390;SDS011;22957;50.824;4.360;2023-04-24T10:01:58;14.73;;;3.40;;
2390;SDS011;22957;50.824;4.360;2023-04-24T10:04:25;8.40;;;3.13;;
2390;SDS011;22957;50.824;4.360;2023-04-24T10:06:53;6.17;;;2.80;;
2390;SDS011;22957;50.824;4.360;2023-04-24T10:09:21;7.23;;;3.00;;
2390;SDS011;22957;50.824;4.360;2023-04-24T10:11:49;7.40;;;3.00;;
2390;SDS011;22957;50.824;4.360;2023-04-24T10:14:16;6.77;;;3.17;;
2390;SDS011;22957;50.824;4.360;2023-04-24T10:16:43;14.53;;;3.17;;
2390;SDS011;22957;50.824;4.360;2023-04-24T10:19:11;6.50;;;3.23;;
2390;SDS011;22957;50.824;4.360;2023-04-24T10:21:38;8.37;;;3.50;;
2390;SDS011;22957;50.824;4.360;2023-04-24T10:24:07;7.70;;;3.30;;
2390;SDS011;22957;50.824;4.360;2023-04-24T10:26:34;12.60;;;3.87;;
2390;SDS011;22957;50.824;4.360;2023-04-24T10:29:00;11.47;;;3.40;;
2390;SDS011;22957;50.824;4.360;2023-04-24T10:31:27;8.47;;;3.53;;
2390;SDS011;22957;50.824;4.360;2023-04-24T10:33:55;11.93;;;4.00;;
2390;SDS011;22957;50.824;4.360;2023-04-24T10:36:23;7.80;;;3.37;;
2390;SDS011;22957;50.824;4.360;2023-04-24T10:38:51;10.93;;;4.33;;
2390;SDS011;22957;50.824;4.360;2023-04-24T10:41:19;14.47;;;4.67;;
2390;SDS011;22957;50.824;4.360;2023-04-24T10:43:48;8.23;;;3.40;;
2390;SDS011;22957;50.824;4.360;2023-04-24T10:46:29;7.73;;;3.93;;
2390;SDS011;22957;50.824;4.360;2023-04-24T10:48:55;6.70;;;3.90;;
2390;SDS011;22957;50.824;4.360;2023-04-24T10:51:22;7.60;;;3.83;;
2390;SDS011;22957;50.824;4.360;2023-04-24T10:53:51;6.70;;;4.13;;
2390;SDS011;22957;50.824;4.360;2023-04-24T10:56:17;12.90;;;4.03;;
2390;SDS011;22957;50.824;4.360;2023-04-24T10:58:49;9.10;;;4.73;;
2390;SDS011;22957;50.824;4.360;2023-04-24T11:01:38;8.53;;;3.60;;
2390;SDS011;22957;50.824;4.360;2023-04-24T11:04:03;8.27;;;4.03;;
2390;SDS011;22957;50.824;4.360;2023-04-24T11:06:29;7.03;;;4.23;;
2390;SDS011;22957;50.824;4.360;2023-04-24T11:09:03;6.83;;;4.70;;
2390;SDS011;22957;50.824;4.360;2023-04-24T11:11:31;8.17;;;4.97;;
2390;SDS011;22957;50.824;4.360;2023-04-24T11:16:28;6.33;;;3.97;;
2390;SDS011;22957;50.824;4.360;2023-04-24T11:21:41;9.63;;;4.07;;
2390;SDS011;22957;50.824;4.360;2023-04-24T11:32:19;7.07;;;4.03;;
2390;SDS011;22957;50.824;4.360;2023-04-24T11:34:55;10.40;;;3.80;;
2390;SDS011;22957;50.824;4.360;2023-04-24T11:37:23;7.70;;;4.40;;
2390;SDS011;22957;50.824;4.360;2023-04-24T11:39:52;7.87;;;4.13;;
2390;SDS011;22957;50.824;4.360;2023-04-24T11:42:22;9.73;;;3.77;;
2390;SDS011;22957;50.824;4.360;2023-04-24T11:44:52;8.10;;;4.40;;
2390;SDS011;22957;50.824;4.360;2023-04-24T11:47:20;8.70;;;4.43;;
2390;SDS011;22957;50.824;4.360;2023-04-24T11:50:07;8.30;;;5.27;;
2390;SDS011;22957;50.824;4.360;2023-04-24T11:52:41;8.63;;;4.93;;
2390;SDS011;22957;50.824;4.360;2023-04-24T11:55:22;12.73;;;5.40;;
2390;SDS011;22957;50.824;4.360;2023-04-24T11:57:53;9.60;;;4.50;;
2390;SDS011;22957;50.824;4.360;2023-04-24T12:02:48;9.30;;;4.63;;
2390;SDS011;22957;50.824;4.360;2023-04-24T12:05:21;7.07;;;4.30;;
2390;SDS011;22957;50.824;4.360;2023-04-24T12:07:49;6.60;;;4.70;;
2390;SDS011;22957;50.824;4.360;2023-04-24T12:10:19;8.57;;;4.67;;
2390;SDS011;22957;50.824;4.360;2023-04-24T12:12:45;9.27;;;5.37;;
2390;SDS011;22957;50.824;4.360;2023-04-24T12:15:11;10.33;;;4.90;;
2390;SDS011;22957;50.824;4.360;2023-04-24T12:17:40;8.17;;;5.00;;
2390;SDS011;22957;50.824;4.360;2023-04-24T12:20:07;5.47;;;4.07;;
2390;SDS011;22957;50.824;4.360;2023-04-24T12:22:46;7.97;;;5.30;;
2390;SDS011;22957;50.824;4.360;2023-04-24T12:25:18;8.73;;;5.20;;
2390;SDS011;22957;50.824;4.360;2023-04-24T12:27:45;7.60;;;4.90;;
2390;SDS011;22957;50.824;4.360;2023-04-24T12:30:15;9.63;;;4.57;;
2390;SDS011;22957;50.824;4.360;2023-04-24T12:32:45;6.23;;;4.20;;
2390;SDS011;22957;50.824;4.360;2023-04-24T12:35:12;8.97;;;3.93;;
2390;SDS011;22957;50.824;4.360;2023-04-24T12:37:43;5.10;;;4.30;;
2390;SDS011;22957;50.824;4.360;2023-04-24T12:40:09;5.63;;;4.10;;
2390;SDS011;22957;50.824;4.360;2023-04-24T12:42:41;9.10;;;4.37;;
2390;SDS011;22957;50.824;4.360;2023-04-24T12:45:08;7.93;;;4.57;;
2390;SDS011;22957;50.824;4.360;2023-04-24T12:47:34;6.67;;;4.27;;
2390;SDS011;22957;50.824;4.360;2023-04-24T12:50:01;8.90;;;3.73;;
2390;SDS011;22957;50.824;4.360;2023-04-24T12:52:27;6.37;;;3.73;;
2390;SDS011;22957;50.824;4.360;2023-04-24T12:54:54;6.13;;;3.80;;
2390;SDS011;22957;50.824;4.360;2023-04-24T12:57:25;6.00;;;3.60;;
2390;SDS011;22957;50.824;4.360;2023-04-24T12:59:55;6.00;;;2.90;;
2390;SDS011;22957;50.824;4.360;2023-04-24T13:02:22;6.33;;;3.30;;
2390;SDS011;22957;50.824;4.360;2023-04-24T13:04:48;8.20;;;3.00;;
2390;SDS011;22957;50.824;4.360;2023-04-24T13:07:15;7.80;;;3.77;;
2390;SDS011;22957;50.824;4.360;2023-04-24T13:09:42;8.83;;;3.20;;
2390;SDS011;22957;50.824;4.360;2023-04-24T13:12:08;6.63;;;3.10;;
2390;SDS011;22957;50.824;4.360;2023-04-24T13:14:34;7.33;;;2.70;;
2390;SDS011;22957;50.824;4.360;2023-04-24T13:17:00;6.57;;;3.33;;
2390;SDS011;22957;50.824;4.360;2023-04-24T13:19:26;8.63;;;3.00;;
2390;SDS011;22957;50.824;4.360;2023-04-24T13:21:56;5.33;;;3.07;;
2390;SDS011;22957;50.824;4.360;2023-04-24T13:24:25;4.07;;;3.00;;
2390;SDS011;22957;50.824;4.360;2023-04-24T13:26:51;7.53;;;2.63;;
2390;SDS011;22957;50.824;4.360;2023-04-24T13:29:17;5.33;;;2.93;;
2390;SDS011;22957;50.824;4.360;2023-04-24T13:31:43;6.23;;;2.90;;
2390;SDS011;22957;50.824;4.360;2023-04-24T13:34:09;5.93;;;2.33;;
2390;SDS011;22957;50.824;4.360;2023-04-24T13:36:35;8.63;;;2.37;;
2390;SDS011;22957;50.824;4.360;2023-04-24T13:39:01;6.73;;;2.20;;
2390;SDS011;22957;50.824;4.360;2023-04-24T13:41:29;3.47;;;2.03;;
2390;SDS011;22957;50.824;4.360;2023-04-24T13:43:55;8.77;;;2.90;;
2390;SDS011;22957;50.824;4.360;2023-04-24T13:46:21;4.10;;;2.10;;
2390;SDS011;22957;50.824;4.360;2023-04-24T13:48:47;3.20;;;2.10;;
2390;SDS011;22957;50.824;4.360;2023-04-24T13:51:12;8.43;;;2.47;;
2390;SDS011;22957;50.824;4.360;2023-04-24T13:53:38;6.37;;;2.77;;
2390;SDS011;22957;50.824;4.360;2023-04-24T13:56:04;5.70;;;2.53;;
2390;SDS011;22957;50.824;4.360;2023-04-24T13:58:33;4.70;;;2.23;;
2390;SDS011;22957;50.824;4.360;2023-04-24T14:01:01;5.50;;;2.27;;
2390;SDS011;22957;50.824;4.360;2023-04-24T14:03:26;5.20;;;2.43;;
2390;SDS011;22957;50.824;4.360;2023-04-24T14:05:52;3.60;;;2.20;;
2390;SDS011;22957;50.824;4.360;2023-04-24T14:08:17;7.00;;;1.77;;
2390;SDS011;22957;50.824;4.360;2023-04-24T14:10:43;4.53;;;1.83;;
2390;SDS011;22957;50.824;4.360;2023-04-24T14:13:08;3.90;;;2.30;;
2390;SDS011;22957;50.824;4.360;2023-04-24T14:15:35;2.90;;;1.80;;
2390;SDS011;22957;50.824;4.360;2023-04-24T14:18:01;6.17;;;2.03;;
2390;SDS011;22957;50.824;4.360;2023-04-24T14:20:28;3.93;;;1.60;;
2390;SDS011;22957;50.824;4.360;2023-04-24T14:22:53;2.43;;;1.60;;
2390;SDS011;22957;50.824;4.360;2023-04-24T14:25:19;9.90;;;1.77;;
2390;SDS011;22957;50.824;4.360;2023-04-24T14:27:45;6.23;;;1.87;;
2390;SDS011;22957;50.824;4.360;2023-04-24T14:30:12;4.23;;;2.07;;
2390;SDS011;22957;50.824;4.360;2023-04-24T14:32:38;4.70;;;2.13;;
2390;SDS011;22957;50.824;4.360;2023-04-24T14:35:05;8.07;;;2.00;;
2390;SDS011;22957;50.824;4.360;2023-04-24T14:37:31;8.47;;;2.20;;
2390;SDS011;22957;50.824;4.360;2023-04-24T14:39:57;5.53;;;1.97;;
2390;SDS011;22957;50.824;4.360;2023-04-24T14:42:22;3.30;;;1.70;;
2390;SDS011;22957;50.824;4.360;2023-04-24T14:44:48;6.10;;;2.20;;
2390;SDS011;22957;50.824;4.360;2023-04-24T14:47:14;3.60;;;1.60;;
2390;SDS011;22957;50.824;4.360;2023-04-24T14:49:40;2.97;;;1.40;;
2390;SDS011;22957;50.824;4.360;2023-04-24T14:52:05;4.13;;;1.57;;
2390;SDS011;22957;50.824;4.360;2023-04-24T14:54:31;3.80;;;1.63;;
2390;SDS011;22957;50.824;4.360;2023-04-24T14:56:56;4.37;;;1.43;;
2390;SDS011;22957;50.824;4.360;2023-04-24T14:59:22;4.77;;;1.53;;
2390;SDS011;22957;50.824;4.360;2023-04-24T15:01:48;2.87;;;1.50;;
2390;SDS011;22957;50.824;4.360;2023-04-24T15:04:15;5.77;;;1.50;;
2390;SDS011;22957;50.824;4.360;2023-04-24T15:06:41;4.93;;;1.80;;